Time;durP1;ratioP1;P1;durP2;ratioP2;P2;SDS_P1;SDS_P2;PMS_P1;PMS_P2;Temp;Humidity;BMP_temperature;BMP_pressure;BME280_temperature;BME280_humidity;BME280_pressure;Samples;Min_cycle;Max_cycle;Signal;HPM_P1;HPM_P2
2022/01/08 00:00:51;;;;;;;8.65;3.85;;;;;;;;;;5094615;28;20036;-85
2022/01/08 00:03:17;;;;;;;9.60;3.92;;;;;;;;;;5094320;28;20059;-85
2022/01/08 00:05:43;;;;;;;8.50;3.75;;;;;;;;;;5095795;28;20073;-85
2022/01/08 00:08:09;;;;;;;10.63;3.65;;;;;;;;;;5094087;28;20040;-85
2022/01/08 00:10:35;;;;;;;8.70;3.45;;;;;;;;;;5094171;28;20044;-85
2022/01/08 00:13:04;;;;;;;9.32;3.65;;;;;;;;;;5093828;28;20047;-85
2022/01/08 00:15:30;;;;;;;8.05;3.00;;;;;;;;;;5095240;28;20444;-85
2022/01/08 00:17:56;;;;;;;8.70;3.00;;;;;;;;;;5077130;28;20044;-85
2022/01/08 00:20:22;;;;;;;10.95;3.40;;;;;;;;;;5094040;28;20050;-85
2022/01/08 00:22:51;;;;;;;7.57;2.83;;;;;;;;;;5095245;28;20087;-85
2022/01/08 00:25:17;;;;;;;6.57;2.65;;;;;;;;;;5093941;28;20059;-85
2022/01/08 00:27:43;;;;;;;10.35;2.63;;;;;;;;;;5093651;28;20052;-85
2022/01/08 00:30:09;;;;;;;8.95;2.83;;;;;;;;;;5093809;28;20040;-84
2022/01/08 00:32:36;;;;;;;6.20;2.45;;;;;;;;;;5093499;28;20043;-86
2022/01/08 00:35:02;;;;;;;9.07;2.60;;;;;;;;;;5094913;28;20052;-86
2022/01/08 00:37:28;;;;;;;9.25;2.50;;;;;;;;;;5095235;28;20040;-85
2022/01/08 00:39:54;;;;;;;7.18;2.50;;;;;;;;;;5093775;28;20044;-86
2022/01/08 00:42:20;;;;;;;7.05;2.65;;;;;;;;;;5094756;28;20049;-85
2022/01/08 00:44:46;;;;;;;7.00;2.35;;;;;;;;;;5094818;28;20368;-86
2022/01/08 00:47:12;;;;;;;5.93;2.13;;;;;;;;;;5093525;28;20104;-85
2022/01/08 00:49:38;;;;;;;7.10;2.53;;;;;;;;;;5095121;28;20430;-87
2022/01/08 00:52:05;;;;;;;10.20;2.70;;;;;;;;;;5093864;28;20058;-85
2022/01/08 00:54:31;;;;;;;8.68;2.65;;;;;;;;;;5094366;28;20214;-85
2022/01/08 00:56:57;;;;;;;6.45;2.70;;;;;;;;;;5093284;28;20052;-85
2022/01/08 00:59:23;;;;;;;8.02;2.65;;;;;;;;;;5093056;28;20097;-85
2022/01/08 01:01:49;;;;;;;8.30;2.63;;;;;;;;;;5093441;28;20123;-85
2022/01/08 01:04:15;;;;;;;10.20;2.92;;;;;;;;;;5094303;28;20040;-85
2022/01/08 01:06:41;;;;;;;6.55;2.70;;;;;;;;;;5093160;28;20407;-85
2022/01/08 01:09:07;;;;;;;5.50;2.22;;;;;;;;;;5093193;28;20040;-85
2022/01/08 01:11:33;;;;;;;9.88;2.67;;;;;;;;;;5093211;28;20048;-85
2022/01/08 01:13:59;;;;;;;8.77;2.20;;;;;;;;;;5094149;28;20495;-85
2022/01/08 01:16:25;;;;;;;7.20;2.70;;;;;;;;;;5094450;28;20039;-85
2022/01/08 01:18:52;;;;;;;8.00;2.35;;;;;;;;;;5092699;28;20044;-84
2022/01/08 01:21:18;;;;;;;7.55;2.65;;;;;;;;;;5092890;28;20036;-85
2022/01/08 01:23:45;;;;;;;6.38;2.95;;;;;;;;;;5093808;28;20397;-85
2022/01/08 01:26:17;;;;;;;5.80;2.20;;;;;;;;;;5075863;28;20040;-84
2022/01/08 01:47:17;;;;;;;8.88;3.20;;;;;;;;;;5078165;28;20426;-85
2022/01/08 01:49:46;;;;;;;7.18;2.90;;;;;;;;;;5093671;28;20043;-85
2022/01/08 01:52:13;;;;;;;8.25;3.03;;;;;;;;;;5093897;28;20494;-85
2022/01/08 01:54:39;;;;;;;9.65;3.10;;;;;;;;;;5091835;28;20471;-85
2022/01/08 01:57:06;;;;;;;7.07;3.60;;;;;;;;;;5093722;28;20080;-85
2022/01/08 01:59:33;;;;;;;9.73;3.90;;;;;;;;;;5092226;28;20039;-85
2022/01/08 02:01:59;;;;;;;8.35;3.53;;;;;;;;;;5075196;28;20047;-86
2022/01/08 02:04:26;;;;;;;7.80;3.85;;;;;;;;;;5091991;28;20047;-85
2022/01/08 02:06:52;;;;;;;9.70;3.63;;;;;;;;;;5092060;28;20047;-86
2022/01/08 02:09:18;;;;;;;7.95;3.55;;;;;;;;;;5093192;28;20046;-85
2022/01/08 02:11:56;;;;;;;10.35;3.90;;;;;;;;;;5092085;28;20067;-84
2022/01/08 02:14:22;;;;;;;14.55;4.80;;;;;;;;;;5091805;28;20071;-85
2022/01/08 02:16:48;;;;;;;9.82;4.05;;;;;;;;;;5092153;28;20047;-85
2022/01/08 02:19:14;;;;;;;10.25;4.25;;;;;;;;;;5091743;28;20471;-86
2022/01/08 02:21:46;;;;;;;10.18;3.92;;;;;;;;;;5091849;28;20047;-85
2022/01/08 02:24:12;;;;;;;10.48;4.55;;;;;;;;;;5091540;28;20484;-85
2022/01/08 02:26:38;;;;;;;11.52;4.47;;;;;;;;;;5092013;28;20048;-85
2022/01/08 02:29:04;;;;;;;11.93;4.65;;;;;;;;;;5091817;28;20040;-85
2022/01/08 02:31:30;;;;;;;10.20;4.68;;;;;;;;;;5091724;28;20544;-84
2022/01/08 02:33:56;;;;;;;10.68;4.78;;;;;;;;;;5091376;28;20396;-85
2022/01/08 02:36:22;;;;;;;11.30;5.03;;;;;;;;;;5091459;28;20080;-86
2022/01/08 02:38:49;;;;;;;10.55;5.78;;;;;;;;;;5091454;28;20071;-85
2022/01/08 02:41:15;;;;;;;12.50;5.00;;;;;;;;;;5074813;28;20040;-85
2022/01/08 02:43:45;;;;;;;10.10;5.10;;;;;;;;;;5093049;28;20043;-86
2022/01/08 02:46:12;;;;;;;11.68;4.95;;;;;;;;;;5074690;28;20089;-86
2022/01/08 02:48:38;;;;;;;12.13;5.22;;;;;;;;;;5091795;28;20377;-85
2022/01/08 02:51:04;;;;;;;11.07;5.60;;;;;;;;;;5091632;28;20403;-86
2022/01/08 02:53:30;;;;;;;11.15;5.25;;;;;;;;;;5091383;28;20044;-85
2022/01/08 02:55:56;;;;;;;10.43;5.40;;;;;;;;;;5091249;28;20044;-86
2022/01/08 02:58:25;;;;;;;9.88;5.45;;;;;;;;;;5091683;28;20046;-85
2022/01/08 03:00:51;;;;;;;13.13;5.50;;;;;;;;;;5092506;28;20040;-86
2022/01/08 03:03:17;;;;;;;10.88;5.47;;;;;;;;;;5092790;28;20090;-85
2022/01/08 03:05:43;;;;;;;9.30;5.40;;;;;;;;;;5092467;28;20483;-85
2022/01/08 03:08:10;;;;;;;11.40;5.95;;;;;;;;;;5092572;28;20040;-85
2022/01/08 03:10:36;;;;;;;13.57;5.18;;;;;;;;;;5092393;28;20094;-86
2022/01/08 03:13:02;;;;;;;14.02;5.15;;;;;;;;;;5092851;28;20447;-87
2022/01/08 03:15:28;;;;;;;10.00;5.20;;;;;;;;;;5091133;28;20082;-85
2022/01/08 03:17:54;;;;;;;14.93;4.63;;;;;;;;;;5078664;28;20048;-86
2022/01/08 03:20:20;;;;;;;10.00;5.00;;;;;;;;;;5095275;28;20042;-85
2022/01/08 03:22:47;;;;;;;10.10;4.90;;;;;;;;;;5095010;28;20042;-85
2022/01/08 03:25:14;;;;;;;10.60;5.10;;;;;;;;;;5095131;28;20391;-85
2022/01/08 03:27:44;;;;;;;13.70;5.53;;;;;;;;;;5095383;28;20063;-86
2022/01/08 03:30:12;;;;;;;9.90;5.53;;;;;;;;;;5096131;28;20075;-86
2022/01/08 03:32:38;;;;;;;12.15;5.22;;;;;;;;;;5094947;28;20078;-87
2022/01/08 03:35:04;;;;;;;8.93;4.40;;;;;;;;;;5094457;28;20177;-86
2022/01/08 03:37:30;;;;;;;8.10;4.57;;;;;;;;;;5094931;28;20168;-86
2022/01/08 03:39:56;;;;;;;12.95;4.28;;;;;;;;;;5096126;28;20043;-86
2022/01/08 03:42:22;;;;;;;8.75;3.90;;;;;;;;;;5094982;28;20115;-86
2022/01/08 03:44:48;;;;;;;10.18;3.92;;;;;;;;;;5094436;28;20048;-86
2022/01/08 03:49:52;;;;;;;8.20;3.75;;;;;;;;;;5094374;28;20492;-86
2022/01/08 03:52:18;;;;;;;10.43;4.13;;;;;;;;;;5077725;28;20054;-85
2022/01/08 03:54:44;;;;;;;7.57;3.63;;;;;;;;;;5094233;28;20123;-86
2022/01/08 03:57:10;;;;;;;9.73;3.58;;;;;;;;;;5094545;28;20202;-86
2022/01/08 03:59:36;;;;;;;9.38;4.18;;;;;;;;;;5094328;28;20176;-86
2022/01/08 04:02:02;;;;;;;10.18;4.20;;;;;;;;;;5095818;28;20043;-85
2022/01/08 04:04:28;;;;;;;9.73;4.38;;;;;;;;;;5094228;28;20145;-86
2022/01/08 04:06:54;;;;;;;11.75;3.95;;;;;;;;;;5095642;28;20043;-86
2022/01/08 04:09:20;;;;;;;8.25;3.58;;;;;;;;;;5094636;28;20054;-85
2022/01/08 04:11:46;;;;;;;8.10;3.50;;;;;;;;;;5095579;28;20047;-85
2022/01/08 04:14:14;;;;;;;8.85;4.13;;;;;;;;;;5094058;28;20371;-85
2022/01/08 04:16:44;;;;;;;11.10;4.07;;;;;;;;;;5095477;28;20043;-86
2022/01/08 04:19:10;;;;;;;12.05;4.00;;;;;;;;;;5094648;28;20072;-85
2022/01/08 04:24:04;;;;;;;8.93;3.65;;;;;;;;;;5093860;28;20120;-85
2022/01/08 04:26:30;;;;;;;10.07;3.33;;;;;;;;;;5093729;28;20044;-85
2022/01/08 04:28:56;;;;;;;11.02;3.42;;;;;;;;;;5094219;28;20441;-85
2022/01/08 04:31:23;;;;;;;9.85;3.38;;;;;;;;;;5094925;28;20044;-85
2022/01/08 04:33:49;;;;;;;10.43;3.88;;;;;;;;;;5094045;28;20035;-85
2022/01/08 04:36:15;;;;;;;10.25;3.25;;;;;;;;;;5094710;28;20052;-86
2022/01/08 04:38:41;;;;;;;9.05;3.40;;;;;;;;;;5093946;28;20039;-85
2022/01/08 04:41:07;;;;;;;8.40;2.95;;;;;;;;;;5093458;28;20055;-86
2022/01/08 04:43:37;;;;;;;7.30;3.00;;;;;;;;;;5093570;28;20031;-86
2022/01/08 04:46:03;;;;;;;8.75;2.75;;;;;;;;;;5094617;28;20048;-86
2022/01/08 04:48:29;;;;;;;8.35;2.42;;;;;;;;;;5093619;28;20398;-85
2022/01/08 04:50:54;;;;;;;6.80;2.42;;;;;;;;;;5093478;28;20047;-86
2022/01/08 04:53:20;;;;;;;6.82;2.13;;;;;;;;;;5094857;28;20119;-86
2022/01/08 04:55:46;;;;;;;6.95;2.22;;;;;;;;;;5094635;28;20476;-85
2022/01/08 04:58:12;;;;;;;6.30;2.65;;;;;;;;;;5093277;28;20044;-87
2022/01/08 05:00:39;;;;;;;8.25;2.30;;;;;;;;;;5094247;28;20036;-85
2022/01/08 05:03:05;;;;;;;5.90;1.98;;;;;;;;;;5093461;28;20035;-86
2022/01/08 05:05:31;;;;;;;8.20;2.20;;;;;;;;;;5094429;28;20042;-86
2022/01/08 05:07:57;;;;;;;9.90;2.53;;;;;;;;;;5093398;28;20416;-86
2022/01/08 05:10:23;;;;;;;6.75;2.08;;;;;;;;;;5092910;28;20071;-86
2022/01/08 05:12:49;;;;;;;5.75;2.08;;;;;;;;;;5093007;28;20125;-86
2022/01/08 05:15:18;;;;;;;7.80;1.92;;;;;;;;;;5076150;28;20040;-85
2022/01/08 05:17:47;;;;;;;6.72;2.38;;;;;;;;;;5094360;28;20039;-85
2022/01/08 05:20:14;;;;;;;10.20;3.00;;;;;;;;;;5076219;28;20162;-85
2022/01/08 05:25:12;;;;;;;7.07;2.38;;;;;;;;;;5093046;28;20055;-86
2022/01/08 05:27:38;;;;;;;6.32;2.30;;;;;;;;;;5092700;28;20130;-85
2022/01/08 05:30:05;;;;;;;11.05;2.78;;;;;;;;;;5094246;28;20093;-85
2022/01/08 05:32:31;;;;;;;7.43;2.75;;;;;;;;;;5092381;28;20040;-85
2022/01/08 05:34:57;;;;;;;8.65;2.90;;;;;;;;;;5092411;28;20048;-85
2022/01/08 05:37:23;;;;;;;11.20;3.10;;;;;;;;;;5092538;28;20467;-86
2022/01/08 05:39:50;;;;;;;6.32;2.53;;;;;;;;;;5091800;28;20089;-85
2022/01/08 05:42:16;;;;;;;8.05;2.65;;;;;;;;;;5093436;28;20051;-85
2022/01/08 05:44:42;;;;;;;10.73;3.33;;;;;;;;;;5092346;28;20044;-86
2022/01/08 05:47:08;;;;;;;8.00;3.58;;;;;;;;;;5093010;28;20177;-85
2022/01/08 05:49:34;;;;;;;8.68;2.70;;;;;;;;;;5093767;28;20032;-86
2022/01/08 05:52:00;;;;;;;8.45;3.15;;;;;;;;;;5092407;28;20036;-85
2022/01/08 05:54:27;;;;;;;7.65;3.15;;;;;;;;;;5092137;28;20048;-85
2022/01/08 05:56:53;;;;;;;10.50;3.72;;;;;;;;;;5092179;28;20055;-86
2022/01/08 05:59:21;;;;;;;8.27;3.35;;;;;;;;;;5092368;28;20429;-85
2022/01/08 06:01:47;;;;;;;8.48;3.45;;;;;;;;;;5091830;28;20048;-85
2022/01/08 06:04:13;;;;;;;9.90;3.92;;;;;;;;;;5091952;28;20123;-86
2022/01/08 06:06:40;;;;;;;9.35;3.95;;;;;;;;;;5091762;28;20035;-86
2022/01/08 06:09:06;;;;;;;10.65;4.35;;;;;;;;;;5093530;28;20036;-86
2022/01/08 06:11:33;;;;;;;11.70;4.38;;;;;;;;;;5091992;28;20483;-85
2022/01/08 06:13:58;;;;;;;13.13;3.92;;;;;;;;;;5091847;28;20072;-85
2022/01/08 06:16:25;;;;;;;11.15;3.97;;;;;;;;;;5091589;28;20071;-85
2022/01/08 06:18:50;;;;;;;9.65;3.78;;;;;;;;;;5092025;28;20036;-86
2022/01/08 06:21:16;;;;;;;10.35;3.72;;;;;;;;;;5091683;28;20472;-85
2022/01/08 06:23:42;;;;;;;11.02;4.70;;;;;;;;;;5093182;28;20118;-86
2022/01/08 06:26:09;;;;;;;10.52;3.97;;;;;;;;;;5091495;28;20044;-86
2022/01/08 06:28:35;;;;;;;9.98;4.35;;;;;;;;;;5091979;28;20141;-85
2022/01/08 06:31:01;;;;;;;15.32;4.95;;;;;;;;;;5091478;28;20051;-90
2022/01/08 06:33:27;;;;;;;10.00;4.05;;;;;;;;;;5091976;28;20044;-85
2022/01/08 06:35:53;;;;;;;13.02;4.40;;;;;;;;;;5091435;28;20056;-85
2022/01/08 06:38:19;;;;;;;13.13;4.75;;;;;;;;;;5092886;28;20035;-84
2022/01/08 06:40:46;;;;;;;10.02;4.15;;;;;;;;;;5091537;28;20040;-84
2022/01/08 06:43:12;;;;;;;9.40;4.70;;;;;;;;;;5092572;28;20127;-85
2022/01/08 06:45:38;;;;;;;10.23;4.35;;;;;;;;;;5074708;28;20040;-83
2022/01/08 06:48:04;;;;;;;12.13;4.68;;;;;;;;;;5091461;28;20044;-85
2022/01/08 06:50:30;;;;;;;12.50;4.40;;;;;;;;;;5092098;28;20079;-85
2022/01/08 06:52:56;;;;;;;11.55;4.57;;;;;;;;;;5095611;28;20083;-85
2022/01/08 06:55:22;;;;;;;13.05;4.72;;;;;;;;;;5097175;28;20044;-84
2022/01/08 06:57:48;;;;;;;12.07;4.78;;;;;;;;;;5089283;28;20041;-84
2022/01/08 07:00:15;;;;;;;13.75;4.47;;;;;;;;;;5075616;28;20068;-84
2022/01/08 07:02:41;;;;;;;12.02;5.22;;;;;;;;;;5058446;28;20569;-85
2022/01/08 07:05:07;;;;;;;11.82;4.43;;;;;;;;;;5075178;28;20547;-85
2022/01/08 07:07:33;;;;;;;11.13;4.97;;;;;;;;;;5074823;28;20480;-85
2022/01/08 07:09:59;;;;;;;14.52;5.35;;;;;;;;;;5076613;28;20043;-84
2022/01/08 07:12:25;;;;;;;11.02;4.82;;;;;;;;;;5058218;28;20505;-84
2022/01/08 07:14:50;;;;;;;13.65;4.65;;;;;;;;;;5076478;28;20395;-84
2022/01/08 07:17:16;;;;;;;12.98;4.63;;;;;;;;;;5077989;28;20032;-84
2022/01/08 07:19:42;;;;;;;12.05;4.75;;;;;;;;;;5075056;28;20131;-84
2022/01/08 07:22:08;;;;;;;11.27;5.22;;;;;;;;;;5076230;28;20040;-85
2022/01/08 07:24:34;;;;;;;13.10;4.30;;;;;;;;;;5074909;28;20121;-84
2022/01/08 07:27:00;;;;;;;10.60;4.38;;;;;;;;;;5074840;28;20045;-84
2022/01/08 07:29:26;;;;;;;12.27;4.78;;;;;;;;;;5074788;28;20049;-84
2022/01/08 07:31:52;;;;;;;10.40;4.57;;;;;;;;;;5074596;28;20476;-86
2022/01/08 07:34:18;;;;;;;11.77;4.38;;;;;;;;;;5074062;28;20051;-84
2022/01/08 07:36:44;;;;;;;12.25;4.15;;;;;;;;;;5074558;28;20045;-85
2022/01/08 07:39:11;;;;;;;11.70;4.05;;;;;;;;;;5074272;28;20040;-85
2022/01/08 07:41:40;;;;;;;8.95;4.25;;;;;;;;;;5074054;28;20048;-84
2022/01/08 07:44:06;;;;;;;13.07;4.80;;;;;;;;;;5074559;28;20040;-84
2022/01/08 07:46:32;;;;;;;11.90;4.05;;;;;;;;;;5074351;28;20043;-85
2022/01/08 07:48:58;;;;;;;12.18;4.15;;;;;;;;;;5074207;28;20048;-84
2022/01/08 07:51:24;;;;;;;10.55;4.05;;;;;;;;;;5074452;28;20040;-84
2022/01/08 07:53:50;;;;;;;9.98;4.22;;;;;;;;;;5074254;28;20036;-84
2022/01/08 07:56:16;;;;;;;13.85;4.45;;;;;;;;;;5074168;28;20043;-87
2022/01/08 07:58:42;;;;;;;11.40;3.92;;;;;;;;;;5075538;28;20472;-86
2022/01/08 08:01:08;;;;;;;11.88;4.00;;;;;;;;;;5075560;28;20036;-88
2022/01/08 08:03:34;;;;;;;12.38;4.13;;;;;;;;;;5073356;28;20044;-86
2022/01/08 08:06:00;;;;;;;10.07;4.20;;;;;;;;;;5075254;28;20131;-88
2022/01/08 08:08:26;;;;;;;13.77;4.38;;;;;;;;;;5075332;28;20040;-87
2022/01/08 08:10:52;;;;;;;7.97;3.75;;;;;;;;;;5073971;28;20036;-87
2022/01/08 08:13:18;;;;;;;15.45;4.60;;;;;;;;;;5073613;28;20078;-88
2022/01/08 08:15:45;;;;;;;10.60;4.10;;;;;;;;;;5073961;28;20085;-87
2022/01/08 08:18:11;;;;;;;10.05;3.83;;;;;;;;;;5073555;28;20498;-87
2022/01/08 08:20:38;;;;;;;11.98;4.13;;;;;;;;;;5075255;28;20044;-86
2022/01/08 08:23:04;;;;;;;7.72;3.60;;;;;;;;;;5056711;28;20098;-87
2022/01/08 08:25:29;;;;;;;8.77;3.63;;;;;;;;;;5073855;28;20052;-86
2022/01/08 08:27:56;;;;;;;10.32;4.45;;;;;;;;;;5073351;28;20076;-86
2022/01/08 08:30:22;;;;;;;14.05;4.18;;;;;;;;;;5073647;28;20040;-86
2022/01/08 08:32:48;;;;;;;10.25;3.92;;;;;;;;;;5073357;28;20106;-87
2022/01/08 08:35:15;;;;;;;9.10;3.53;;;;;;;;;;5073371;28;20454;-87
2022/01/08 08:37:41;;;;;;;15.82;4.47;;;;;;;;;;5073480;28;20040;-86
2022/01/08 08:40:07;;;;;;;12.20;3.88;;;;;;;;;;5073455;28;20086;-84
2022/01/08 08:42:33;;;;;;;7.95;4.00;;;;;;;;;;5074255;28;20484;-84
2022/01/08 08:44:59;;;;;;;14.48;3.97;;;;;;;;;;5073575;28;20433;-83
2022/01/08 08:47:25;;;;;;;9.93;3.53;;;;;;;;;;5073047;28;20048;-84
2022/01/08 08:49:51;;;;;;;12.35;4.07;;;;;;;;;;5073371;28;20049;-84
2022/01/08 08:52:17;;;;;;;10.65;3.63;;;;;;;;;;5073348;28;20059;-84
2022/01/08 08:54:44;;;;;;;9.30;3.47;;;;;;;;;;5073966;28;20052;-84
2022/01/08 08:57:10;;;;;;;8.82;3.97;;;;;;;;;;5074507;28;20119;-82
2022/01/08 08:59:36;;;;;;;8.70;3.28;;;;;;;;;;5072872;28;20040;-84
2022/01/08 09:02:02;;;;;;;9.73;3.60;;;;;;;;;;5073217;28;20123;-84
2022/01/08 09:04:28;;;;;;;9.52;3.42;;;;;;;;;;5074197;28;20612;-84
2022/01/08 09:06:57;;;;;;;12.40;3.55;;;;;;;;;;5074203;28;20037;-85
2022/01/08 09:09:23;;;;;;;10.50;3.67;;;;;;;;;;5072727;28;20068;-84
2022/01/08 09:11:49;;;;;;;9.60;3.65;;;;;;;;;;5073168;28;20115;-84
2022/01/08 09:14:15;;;;;;;10.05;3.40;;;;;;;;;;5072776;28;20068;-85
2022/01/08 09:16:45;;;;;;;8.52;2.95;;;;;;;;;;5073818;28;20080;-84
2022/01/08 09:19:11;;;;;;;10.52;3.33;;;;;;;;;;5072465;28;20116;-84
2022/01/08 09:21:37;;;;;;;8.57;3.38;;;;;;;;;;5074067;28;20067;-84
2022/01/08 09:24:03;;;;;;;9.23;2.95;;;;;;;;;;5072277;28;20436;-84
2022/01/08 09:26:29;;;;;;;9.73;2.78;;;;;;;;;;5072539;28;20483;-84
2022/01/08 09:28:55;;;;;;;11.75;3.85;;;;;;;;;;5073824;28;20040;-84
2022/01/08 09:31:21;;;;;;;11.15;3.17;;;;;;;;;;5072371;28;20548;-83
2022/01/08 09:33:47;;;;;;;9.80;3.50;;;;;;;;;;5073577;28;20060;-85
2022/01/08 09:36:13;;;;;;;12.40;3.35;;;;;;;;;;5072201;28;20492;-85
2022/01/08 09:38:39;;;;;;;14.13;3.70;;;;;;;;;;5072129;28;20129;-84
2022/01/08 09:41:05;;;;;;;12.80;3.70;;;;;;;;;;5072226;28;20470;-84
2022/01/08 09:43:32;;;;;;;11.35;3.22;;;;;;;;;;5072256;28;20133;-89
2022/01/08 09:45:58;;;;;;;12.02;3.08;;;;;;;;;;5072056;28;20048;-85
2022/01/08 09:48:25;;;;;;;11.93;3.50;;;;;;;;;;5072909;28;20052;-85
2022/01/08 09:50:51;;;;;;;9.60;3.90;;;;;;;;;;5073478;28;20040;-87
2022/01/08 09:53:17;;;;;;;8.90;3.33;;;;;;;;;;5073523;28;20407;-84
2022/01/08 09:55:43;;;;;;;10.30;3.67;;;;;;;;;;5071815;28;20119;-85
2022/01/08 09:58:11;;;;;;;12.38;3.80;;;;;;;;;;5073031;28;20075;-85
2022/01/08 10:00:37;;;;;;;14.00;3.83;;;;;;;;;;5071978;28;20045;-85
2022/01/08 10:03:18;;;;;;;8.77;3.10;;;;;;;;;;5072110;28;20503;-86
2022/01/08 10:05:44;;;;;;;9.70;3.60;;;;;;;;;;5072019;28;20093;-86
2022/01/08 10:08:12;;;;;;;10.05;3.58;;;;;;;;;;5071604;28;20101;-84
2022/01/08 10:10:38;;;;;;;13.98;4.75;;;;;;;;;;5071736;28;20044;-85
2022/01/08 10:13:04;;;;;;;11.27;3.22;;;;;;;;;;5071981;28;20048;-85
2022/01/08 10:18:23;;;;;;;10.60;4.30;;;;;;;;;;5073072;28;20036;-85
2022/01/08 10:20:50;;;;;;;14.00;3.72;;;;;;;;;;5072808;28;20399;-84
2022/01/08 10:23:21;;;;;;;12.90;3.80;;;;;;;;;;5071527;28;20553;-85
2022/01/08 10:26:07;;;;;;;12.77;4.13;;;;;;;;;;5071176;28;20041;-84
2022/01/08 10:28:33;;;;;;;8.70;3.22;;;;;;;;;;5071313;28;20125;-85
2022/01/08 10:31:09;;;;;;;12.45;3.92;;;;;;;;;;5071660;28;20048;-84
2022/01/08 10:33:35;;;;;;;15.68;4.20;;;;;;;;;;5071136;28;20556;-83
2022/01/08 10:36:03;;;;;;;12.00;4.13;;;;;;;;;;5072323;28;20052;-84
2022/01/08 10:38:30;;;;;;;12.73;4.18;;;;;;;;;;5071055;28;20053;-84
2022/01/08 10:40:56;;;;;;;14.55;4.60;;;;;;;;;;5072777;28;20041;-84
2022/01/08 10:43:23;;;;;;;12.70;4.13;;;;;;;;;;5071527;28;20430;-84
2022/01/08 10:45:49;;;;;;;10.98;4.10;;;;;;;;;;5072621;28;20041;-84
2022/01/08 10:48:24;;;;;;;11.32;3.47;;;;;;;;;;5072551;28;20158;-87
2022/01/08 10:50:50;;;;;;;12.45;3.97;;;;;;;;;;5071355;28;20123;-83
2022/01/08 10:53:16;;;;;;;11.00;4.68;;;;;;;;;;5072639;28;20116;-84
2022/01/08 10:55:42;;;;;;;17.25;5.30;;;;;;;;;;5070765;28;20059;-85
2022/01/08 10:58:08;;;;;;;9.50;4.60;;;;;;;;;;5071231;28;20075;-85
2022/01/08 11:00:34;;;;;;;11.02;4.53;;;;;;;;;;5071268;28;20055;-84
2022/01/08 11:03:00;;;;;;;10.20;4.95;;;;;;;;;;5072588;28;20036;-84
2022/01/08 11:05:28;;;;;;;12.20;4.50;;;;;;;;;;5071190;28;20079;-83
2022/01/08 11:07:54;;;;;;;14.40;5.32;;;;;;;;;;5054670;28;20087;-84
2022/01/08 11:10:21;;;;;;;13.57;5.43;;;;;;;;;;5070956;28;20063;-85
2022/01/08 11:12:48;;;;;;;13.80;5.50;;;;;;;;;;5071350;28;20036;-85
2022/01/08 11:17:57;;;;;;;12.32;5.60;;;;;;;;;;5072541;28;20041;-84
2022/01/08 11:20:24;;;;;;;11.98;5.90;;;;;;;;;;5070850;28;20040;-84
2022/01/08 11:22:51;;;;;;;13.80;6.05;;;;;;;;;;5072889;28;20044;-84
2022/01/08 11:25:19;;;;;;;13.77;5.95;;;;;;;;;;5074960;28;20049;-84
2022/01/08 11:27:44;;;;;;;14.63;6.45;;;;;;;;;;5070836;28;20044;-84
2022/01/08 11:30:13;;;;;;;13.93;6.20;;;;;;;;;;5070703;28;20381;-83
2022/01/08 11:32:39;;;;;;;15.82;6.20;;;;;;;;;;5071029;28;20492;-84
2022/01/08 11:35:07;;;;;;;16.58;6.60;;;;;;;;;;5070561;28;20124;-84
2022/01/08 11:37:33;;;;;;;12.35;6.05;;;;;;;;;;5071091;28;20049;-84
2022/01/08 11:40:05;;;;;;;13.85;6.30;;;;;;;;;;5074400;28;20045;-84
2022/01/08 11:42:32;;;;;;;13.45;6.70;;;;;;;;;;5074781;28;20472;-83
2022/01/08 11:45:00;;;;;;;13.07;6.65;;;;;;;;;;5074276;28;20116;-85
2022/01/08 11:47:29;;;;;;;17.38;6.70;;;;;;;;;;5074689;28;20048;-84
2022/01/08 11:49:56;;;;;;;15.20;6.20;;;;;;;;;;5057846;28;20052;-84
2022/01/08 11:52:22;;;;;;;14.48;6.75;;;;;;;;;;5074675;28;20046;-84
2022/01/08 11:54:50;;;;;;;17.65;7.32;;;;;;;;;;5074003;28;20091;-84
2022/01/08 11:57:17;;;;;;;11.20;6.40;;;;;;;;;;5057443;28;20036;-84
2022/01/08 11:59:43;;;;;;;15.90;6.80;;;;;;;;;;5074015;28;20040;-84
2022/01/08 12:02:10;;;;;;;15.52;6.53;;;;;;;;;;5057540;28;20036;-84
2022/01/08 12:04:37;;;;;;;14.40;6.85;;;;;;;;;;5073728;28;20048;-84
2022/01/08 12:07:21;;;;;;;12.63;6.10;;;;;;;;;;5075639;28;20119;-84
2022/01/08 12:09:47;;;;;;;13.20;6.22;;;;;;;;;;5075305;28;20407;-85
2022/01/08 12:12:13;;;;;;;13.57;6.80;;;;;;;;;;5075358;28;20040;-84
2022/01/08 12:14:42;;;;;;;13.80;6.32;;;;;;;;;;5075036;28;20043;-84
2022/01/08 12:17:13;;;;;;;13.55;6.13;;;;;;;;;;5075248;28;20040;-83
2022/01/08 12:19:40;;;;;;;14.65;6.65;;;;;;;;;;5075095;28;20041;-83
2022/01/08 12:22:21;;;;;;;14.35;6.80;;;;;;;;;;5073646;28;20044;-83
2022/01/08 12:24:52;;;;;;;16.92;6.47;;;;;;;;;;5073506;28;20109;-84
2022/01/08 12:27:37;;;;;;;17.88;7.35;;;;;;;;;;5075103;28;20052;-84
2022/01/08 12:30:16;;;;;;;12.95;6.90;;;;;;;;;;5073701;28;20059;-83
2022/01/08 12:32:46;;;;;;;14.02;6.80;;;;;;;;;;5073600;28;20391;-83
2022/01/08 12:35:16;;;;;;;14.43;6.85;;;;;;;;;;5073266;28;20131;-83
2022/01/08 12:37:46;;;;;;;13.70;7.35;;;;;;;;;;5074952;28;20078;-85
2022/01/08 12:40:13;;;;;;;14.88;7.30;;;;;;;;;;5075390;28;20060;-84
2022/01/08 12:42:41;;;;;;;15.27;7.78;;;;;;;;;;5073593;28;20502;-84
2022/01/08 12:45:13;;;;;;;14.90;9.13;;;;;;;;;;5073451;28;20395;-84
2022/01/08 12:47:45;;;;;;;14.30;8.48;;;;;;;;;;5074820;28;20043;-84
2022/01/08 12:50:23;;;;;;;16.60;9.13;;;;;;;;;;5072810;28;20040;-84
2022/01/08 12:53:08;;;;;;;15.05;9.38;;;;;;;;;;5073293;28;20049;-84
2022/01/08 12:55:44;;;;;;;18.30;9.80;;;;;;;;;;5074127;28;20033;-84
2022/01/08 12:58:14;;;;;;;17.05;9.98;;;;;;;;;;5074511;28;20036;-84
2022/01/08 13:00:59;;;;;;;17.15;9.88;;;;;;;;;;5073187;28;20119;-85
2022/01/08 13:03:28;;;;;;;16.25;9.38;;;;;;;;;;5057697;28;20089;-84
2022/01/08 13:05:55;;;;;;;18.60;10.30;;;;;;;;;;5073008;28;20121;-84
2022/01/08 13:08:22;;;;;;;15.45;11.00;;;;;;;;;;5072886;28;20560;-84
2022/01/08 13:10:48;;;;;;;20.55;11.25;;;;;;;;;;5072801;28;20060;-84
2022/01/08 13:13:15;;;;;;;25.80;12.05;;;;;;;;;;5074001;28;20047;-84
2022/01/08 13:15:41;;;;;;;15.95;10.63;;;;;;;;;;5072473;28;20044;-85
2022/01/08 13:18:21;;;;;;;19.55;11.77;;;;;;;;;;5074276;28;20200;-85
2022/01/08 13:20:47;;;;;;;17.90;11.40;;;;;;;;;;5072641;28;20040;-85
2022/01/08 13:23:14;;;;;;;17.23;11.05;;;;;;;;;;5073931;28;20055;-85
2022/01/08 13:25:41;;;;;;;17.98;11.25;;;;;;;;;;5072612;28;20437;-84
2022/01/08 13:28:07;;;;;;;20.48;12.93;;;;;;;;;;5072910;28;20055;-84
2022/01/08 13:30:33;;;;;;;15.68;11.82;;;;;;;;;;5072296;28;20048;-84
2022/01/08 13:33:02;;;;;;;17.73;12.13;;;;;;;;;;5072342;28;20072;-85
2022/01/08 13:35:28;;;;;;;18.50;12.07;;;;;;;;;;5073274;28;20345;-84
2022/01/08 13:37:54;;;;;;;19.13;12.05;;;;;;;;;;5072440;28;20040;-84
2022/01/08 13:40:25;;;;;;;21.85;12.82;;;;;;;;;;5072317;28;20044;-85
2022/01/08 13:42:52;;;;;;;18.80;12.82;;;;;;;;;;5073786;28;20051;-84
2022/01/08 13:45:20;;;;;;;21.13;13.15;;;;;;;;;;5071972;28;20083;-85
2022/01/08 13:47:48;;;;;;;19.25;11.57;;;;;;;;;;5072282;28;20053;-84
2022/01/08 13:50:20;;;;;;;19.30;12.38;;;;;;;;;;5072065;28;20048;-84
2022/01/08 13:52:50;;;;;;;19.52;13.05;;;;;;;;;;5073339;28;20036;-86
2022/01/08 13:55:24;;;;;;;20.27;12.50;;;;;;;;;;5071981;28;20060;-84
2022/01/08 13:57:53;;;;;;;24.02;14.32;;;;;;;;;;5073202;28;20036;-85
2022/01/08 14:00:21;;;;;;;21.75;13.85;;;;;;;;;;5071492;28;20510;-86
2022/01/08 14:02:48;;;;;;;19.02;13.70;;;;;;;;;;5071728;28;20502;-84
2022/01/08 14:05:14;;;;;;;24.15;13.95;;;;;;;;;;5073079;28;20048;-84
2022/01/08 14:07:41;;;;;;;21.45;14.10;;;;;;;;;;5071965;28;20040;-85
2022/01/08 14:10:08;;;;;;;20.20;13.35;;;;;;;;;;5073142;28;20098;-85
2022/01/08 14:12:34;;;;;;;19.90;13.63;;;;;;;;;;5071328;28;20045;-85
2022/01/08 14:15:04;;;;;;;23.75;15.05;;;;;;;;;;5071578;28;20048;-85
2022/01/08 14:17:31;;;;;;;22.73;15.60;;;;;;;;;;5071739;28;20153;-85
2022/01/08 14:19:58;;;;;;;24.20;14.25;;;;;;;;;;5072862;28;20041;-84
2022/01/08 14:22:24;;;;;;;22.98;13.60;;;;;;;;;;5072737;28;20480;-86
2022/01/08 14:24:51;;;;;;;20.05;13.98;;;;;;;;;;5072721;28;20078;-84
2022/01/08 14:27:19;;;;;;;23.73;13.60;;;;;;;;;;5072578;28;20119;-84
2022/01/08 14:29:46;;;;;;;23.85;12.98;;;;;;;;;;5073048;28;20040;-84
2022/01/08 14:32:13;;;;;;;22.38;12.48;;;;;;;;;;5071360;28;20052;-85
2022/01/08 14:34:46;;;;;;;22.58;12.85;;;;;;;;;;5054448;28;20067;-85
2022/01/08 14:37:16;;;;;;;21.42;12.85;;;;;;;;;;5054499;28;20528;-85
2022/01/08 14:39:45;;;;;;;22.00;13.25;;;;;;;;;;5071432;28;20036;-85
2022/01/08 14:42:13;;;;;;;22.02;12.35;;;;;;;;;;5071167;28;20567;-84
2022/01/08 14:44:50;;;;;;;20.05;11.38;;;;;;;;;;5071590;28;20066;-84
2022/01/08 14:47:16;;;;;;;23.13;11.75;;;;;;;;;;5071323;28;20055;-85
2022/01/08 14:49:42;;;;;;;19.50;12.18;;;;;;;;;;5071611;28;20042;-85
2022/01/08 14:52:08;;;;;;;21.40;12.15;;;;;;;;;;5071076;28;20040;-85
2022/01/08 14:54:34;;;;;;;18.42;10.85;;;;;;;;;;5071446;28;20045;-85
2022/01/08 14:57:02;;;;;;;23.05;12.60;;;;;;;;;;5071169;28;20480;-85
2022/01/08 14:59:30;;;;;;;21.67;11.30;;;;;;;;;;5072967;28;20076;-87
2022/01/08 15:01:56;;;;;;;25.92;12.40;;;;;;;;;;5071416;28;20400;-84
2022/01/08 15:04:22;;;;;;;26.60;12.10;;;;;;;;;;5071388;28;20052;-85